sensor_id;sensor_type;location;lat;lon;timestamp;temperature;humidity
24522;DHT22;12680;57.804;12.190;2023-05-10T00:01:18;9.90;65.20
24522;DHT22;12680;57.804;12.190;2023-05-10T00:03:45;9.90;65.40
24522;DHT22;12680;57.804;12.190;2023-05-10T00:06:12;9.90;65.50
24522;DHT22;12680;57.804;12.190;2023-05-10T00:08:39;9.80;65.50
24522;DHT22;12680;57.804;12.190;2023-05-10T00:11:05;9.80;65.70
24522;DHT22;12680;57.804;12.190;2023-05-10T00:13:32;9.80;65.90
24522;DHT22;12680;57.804;12.190;2023-05-10T00:15:59;9.70;66.00
24522;DHT22;12680;57.804;12.190;2023-05-10T00:18:26;11.30;67.10
24522;DHT22;12680;57.804;12.190;2023-05-10T00:20:52;9.70;66.10
24522;DHT22;12680;57.804;12.190;2023-05-10T00:23:19;9.60;66.20
24522;DHT22;12680;57.804;12.190;2023-05-10T00:25:46;9.60;66.40
24522;DHT22;12680;57.804;12.190;2023-05-10T00:28:13;9.60;66.60
24522;DHT22;12680;57.804;12.190;2023-05-10T00:30:40;9.50;66.60
24522;DHT22;12680;57.804;12.190;2023-05-10T00:33:06;9.60;66.90
24522;DHT22;12680;57.804;12.190;2023-05-10T00:35:33;9.50;67.00
24522;DHT22;12680;57.804;12.190;2023-05-10T00:38:00;9.50;67.10
24522;DHT22;12680;57.804;12.190;2023-05-10T00:40:27;9.50;67.20
24522;DHT22;12680;57.804;12.190;2023-05-10T00:42:55;9.40;68.10
24522;DHT22;12680;57.804;12.190;2023-05-10T00:45:22;9.40;67.40
24522;DHT22;12680;57.804;12.190;2023-05-10T00:47:49;9.40;67.60
24522;DHT22;12680;57.804;12.190;2023-05-10T00:50:18;9.40;67.70
24522;DHT22;12680;57.804;12.190;2023-05-10T00:52:45;9.40;67.70
24522;DHT22;12680;57.804;12.190;2023-05-10T00:55:12;9.40;67.80
24522;DHT22;12680;57.804;12.190;2023-05-10T00:57:39;10.80;68.70
24522;DHT22;12680;57.804;12.190;2023-05-10T01:00:06;11.20;69.10
24522;DHT22;12680;57.804;12.190;2023-05-10T01:02:34;9.30;68.20
24522;DHT22;12680;57.804;12.190;2023-05-10T01:05:02;9.30;68.20
24522;DHT22;12680;57.804;12.190;2023-05-10T01:07:30;9.30;68.50
24522;DHT22;12680;57.804;12.190;2023-05-10T01:09:57;9.30;68.50
24522;DHT22;12680;57.804;12.190;2023-05-10T01:12:24;9.30;68.50
24522;DHT22;12680;57.804;12.190;2023-05-10T01:14:51;9.30;68.70
24522;DHT22;12680;57.804;12.190;2023-05-10T01:17:19;9.30;69.00
24522;DHT22;12680;57.804;12.190;2023-05-10T01:19:47;10.10;69.50
24522;DHT22;12680;57.804;12.190;2023-05-10T01:22:51;9.20;69.20
24522;DHT22;12680;57.804;12.190;2023-05-10T01:31:08;9.20;69.30
24522;DHT22;12680;57.804;12.190;2023-05-10T01:33:56;9.10;69.90
24522;DHT22;12680;57.804;12.190;2023-05-10T01:36:35;9.10;69.70
24522;DHT22;12680;57.804;12.190;2023-05-10T01:39:17;9.10;70.00
24522;DHT22;12680;57.804;12.190;2023-05-10T01:42:08;9.10;70.20
24522;DHT22;12680;57.804;12.190;2023-05-10T01:44:56;9.10;70.20
24522;DHT22;12680;57.804;12.190;2023-05-10T01:47:32;10.00;71.00
24522;DHT22;12680;57.804;12.190;2023-05-10T01:50:04;9.10;70.40
24522;DHT22;12680;57.804;12.190;2023-05-10T01:52:37;9.00;70.50
24522;DHT22;12680;57.804;12.190;2023-05-10T01:55:08;9.00;70.70
24522;DHT22;12680;57.804;12.190;2023-05-10T01:57:37;9.00;70.90
24522;DHT22;12680;57.804;12.190;2023-05-10T02:00:07;9.00;71.00
24522;DHT22;12680;57.804;12.190;2023-05-10T02:02:39;9.00;71.20
24522;DHT22;12680;57.804;12.190;2023-05-10T02:05:09;9.00;71.40
24522;DHT22;12680;57.804;12.190;2023-05-10T02:07:39;9.00;71.40
24522;DHT22;12680;57.804;12.190;2023-05-10T02:10:07;9.00;71.50
24522;DHT22;12680;57.804;12.190;2023-05-10T02:12:36;9.00;71.70
24522;DHT22;12680;57.804;12.190;2023-05-10T02:15:05;9.00;71.90
24522;DHT22;12680;57.804;12.190;2023-05-10T02:17:35;9.00;71.90
24522;DHT22;12680;57.804;12.190;2023-05-10T02:20:05;9.00;72.10
24522;DHT22;12680;57.804;12.190;2023-05-10T02:22:33;9.00;72.20
24522;DHT22;12680;57.804;12.190;2023-05-10T02:25:01;9.00;72.40
24522;DHT22;12680;57.804;12.190;2023-05-10T02:27:29;9.00;72.40
24522;DHT22;12680;57.804;12.190;2023-05-10T02:29:56;9.00;72.50
24522;DHT22;12680;57.804;12.190;2023-05-10T02:32:26;9.00;72.60
24522;DHT22;12680;57.804;12.190;2023-05-10T02:34:54;8.90;72.80
24522;DHT22;12680;57.804;12.190;2023-05-10T02:37:22;8.90;72.90
24522;DHT22;12680;57.804;12.190;2023-05-10T02:39:52;8.90;73.10
24522;DHT22;12680;57.804;12.190;2023-05-10T02:42:23;8.90;73.10
24522;DHT22;12680;57.804;12.190;2023-05-10T02:44:57;9.20;73.50
24522;DHT22;12680;57.804;12.190;2023-05-10T02:47:26;8.90;73.30
24522;DHT22;12680;57.804;12.190;2023-05-10T02:49:53;8.90;73.50
24522;DHT22;12680;57.804;12.190;2023-05-10T02:52:27;8.90;73.80
24522;DHT22;12680;57.804;12.190;2023-05-10T02:54:56;8.90;74.00
24522;DHT22;12680;57.804;12.190;2023-05-10T02:57:31;9.10;74.20
24522;DHT22;12680;57.804;12.190;2023-05-10T02:59:59;8.90;74.30
24522;DHT22;12680;57.804;12.190;2023-05-10T03:02:27;8.90;74.30
24522;DHT22;12680;57.804;12.190;2023-05-10T03:04:57;8.90;74.50
24522;DHT22;12680;57.804;12.190;2023-05-10T03:07:24;8.90;74.60
24522;DHT22;12680;57.804;12.190;2023-05-10T03:09:52;8.90;74.80
24522;DHT22;12680;57.804;12.190;2023-05-10T03:18:01;9.00;74.70
24522;DHT22;12680;57.804;12.190;2023-05-10T03:20:36;9.00;74.90
24522;DHT22;12680;57.804;12.190;2023-05-10T03:25:42;9.00;75.00
24522;DHT22;12680;57.804;12.190;2023-05-10T03:28:12;9.00;75.20
24522;DHT22;12680;57.804;12.190;2023-05-10T03:30:40;9.00;75.10
24522;DHT22;12680;57.804;12.190;2023-05-10T03:33:07;9.00;75.20
24522;DHT22;12680;57.804;12.190;2023-05-10T03:35:35;9.10;75.30
24522;DHT22;12680;57.804;12.190;2023-05-10T03:38:02;9.10;75.50
24522;DHT22;12680;57.804;12.190;2023-05-10T03:40:29;9.10;75.70
24522;DHT22;12680;57.804;12.190;2023-05-10T03:42:58;9.10;75.70
24522;DHT22;12680;57.804;12.190;2023-05-10T03:45:26;9.10;75.80
24522;DHT22;12680;57.804;12.190;2023-05-10T03:47:53;9.20;75.90
24522;DHT22;12680;57.804;12.190;2023-05-10T03:50:21;9.20;76.00
24522;DHT22;12680;57.804;12.190;2023-05-10T03:52:48;9.20;76.20
24522;DHT22;12680;57.804;12.190;2023-05-10T03:55:15;9.20;76.10
24522;DHT22;12680;57.804;12.190;2023-05-10T03:57:42;9.20;76.10
24522;DHT22;12680;57.804;12.190;2023-05-10T04:00:10;9.20;76.30
24522;DHT22;12680;57.804;12.190;2023-05-10T04:02:37;9.30;76.40
24522;DHT22;12680;57.804;12.190;2023-05-10T04:05:08;9.30;76.30
24522;DHT22;12680;57.804;12.190;2023-05-10T04:07:35;9.30;76.30
24522;DHT22;12680;57.804;12.190;2023-05-10T04:10:02;9.40;76.30
24522;DHT22;12680;57.804;12.190;2023-05-10T04:12:29;9.40;76.30
24522;DHT22;12680;57.804;12.190;2023-05-10T04:14:56;9.40;76.30
24522;DHT22;12680;57.804;12.190;2023-05-10T04:17:23;9.50;76.50
24522;DHT22;12680;57.804;12.190;2023-05-10T04:19:50;9.50;76.40
24522;DHT22;12680;57.804;12.190;2023-05-10T04:22:19;9.50;76.40
24522;DHT22;12680;57.804;12.190;2023-05-10T04:24:46;9.50;76.40
24522;DHT22;12680;57.804;12.190;2023-05-10T04:27:13;9.60;76.60
24522;DHT22;12680;57.804;12.190;2023-05-10T04:29:48;9.60;76.50
24522;DHT22;12680;57.804;12.190;2023-05-10T04:32:15;9.70;76.60
24522;DHT22;12680;57.804;12.190;2023-05-10T04:34:44;9.80;76.50
24522;DHT22;12680;57.804;12.190;2023-05-10T04:37:11;9.90;76.60
24522;DHT22;12680;57.804;12.190;2023-05-10T04:39:39;10.00;76.40
24522;DHT22;12680;57.804;12.190;2023-05-10T04:42:08;10.00;76.30
24522;DHT22;12680;57.804;12.190;2023-05-10T04:44:35;10.10;76.30
24522;DHT22;12680;57.804;12.190;2023-05-10T04:47:03;10.10;76.10
24522;DHT22;12680;57.804;12.190;2023-05-10T04:49:33;10.20;76.10
24522;DHT22;12680;57.804;12.190;2023-05-10T04:52:00;10.30;76.10
24522;DHT22;12680;57.804;12.190;2023-05-10T04:54:31;10.40;75.90
24522;DHT22;12680;57.804;12.190;2023-05-10T04:56:57;10.50;75.80
24522;DHT22;12680;57.804;12.190;2023-05-10T04:59:24;10.50;75.60
24522;DHT22;12680;57.804;12.190;2023-05-10T05:01:52;10.70;75.60
24522;DHT22;12680;57.804;12.190;2023-05-10T05:04:19;10.70;75.40
24522;DHT22;12680;57.804;12.190;2023-05-10T05:06:46;10.80;75.20
24522;DHT22;12680;57.804;12.190;2023-05-10T05:09:16;10.90;75.00
24522;DHT22;12680;57.804;12.190;2023-05-10T05:11:43;11.00;75.00
24522;DHT22;12680;57.804;12.190;2023-05-10T05:14:10;11.10;74.70
24522;DHT22;12680;57.804;12.190;2023-05-10T05:16:38;11.20;74.50
24522;DHT22;12680;57.804;12.190;2023-05-10T05:19:05;11.30;74.40
24522;DHT22;12680;57.804;12.190;2023-05-10T05:21:32;11.40;74.10
24522;DHT22;12680;57.804;12.190;2023-05-10T05:23:59;11.50;74.00
24522;DHT22;12680;57.804;12.190;2023-05-10T05:26:26;11.60;73.90
24522;DHT22;12680;57.804;12.190;2023-05-10T05:28:53;11.70;73.70
24522;DHT22;12680;57.804;12.190;2023-05-10T05:31:24;11.80;73.50
24522;DHT22;12680;57.804;12.190;2023-05-10T05:33:52;11.90;73.40
24522;DHT22;12680;57.804;12.190;2023-05-10T05:36:20;12.00;73.30
24522;DHT22;12680;57.804;12.190;2023-05-10T05:38:47;12.10;73.10
24522;DHT22;12680;57.804;12.190;2023-05-10T05:41:14;12.20;72.90
24522;DHT22;12680;57.804;12.190;2023-05-10T05:43:45;12.30;72.60
24522;DHT22;12680;57.804;12.190;2023-05-10T05:46:12;12.40;72.40
24522;DHT22;12680;57.804;12.190;2023-05-10T05:48:39;12.50;72.10
24522;DHT22;12680;57.804;12.190;2023-05-10T05:51:06;12.60;71.90
24522;DHT22;12680;57.804;12.190;2023-05-10T05:53:33;12.70;71.70
24522;DHT22;12680;57.804;12.190;2023-05-10T05:56:00;12.80;71.60
24522;DHT22;12680;57.804;12.190;2023-05-10T05:58:27;12.90;71.30
24522;DHT22;12680;57.804;12.190;2023-05-10T06:00:54;13.10;71.20
24522;DHT22;12680;57.804;12.190;2023-05-10T06:03:25;13.20;71.10
24522;DHT22;12680;57.804;12.190;2023-05-10T06:05:52;13.30;70.80
24522;DHT22;12680;57.804;12.190;2023-05-10T06:08:19;13.40;70.40
24522;DHT22;12680;57.804;12.190;2023-05-10T06:10:47;13.50;70.20
24522;DHT22;12680;57.804;12.190;2023-05-10T06:13:14;13.60;70.10
24522;DHT22;12680;57.804;12.190;2023-05-10T06:15:41;13.70;69.80
24522;DHT22;12680;57.804;12.190;2023-05-10T06:18:08;13.90;69.60
24522;DHT22;12680;57.804;12.190;2023-05-10T06:20:35;14.00;69.40
24522;DHT22;12680;57.804;12.190;2023-05-10T06:23:02;14.10;69.30
24522;DHT22;12680;57.804;12.190;2023-05-10T06:25:29;14.50;69.20
24522;DHT22;12680;57.804;12.190;2023-05-10T06:28:04;14.30;68.90
24522;DHT22;12680;57.804;12.190;2023-05-10T06:30:31;14.40;68.60
24522;DHT22;12680;57.804;12.190;2023-05-10T06:32:57;14.50;68.10
24522;DHT22;12680;57.804;12.190;2023-05-10T06:35:24;14.60;68.00
24522;DHT22;12680;57.804;12.190;2023-05-10T06:37:52;14.70;67.60
24522;DHT22;12680;57.804;12.190;2023-05-10T06:40:19;14.80;67.40
24522;DHT22;12680;57.804;12.190;2023-05-10T06:42:48;14.90;66.90
24522;DHT22;12680;57.804;12.190;2023-05-10T06:45:15;15.00;66.80
24522;DHT22;12680;57.804;12.190;2023-05-10T06:47:43;15.10;66.50
24522;DHT22;12680;57.804;12.190;2023-05-10T06:50:18;15.30;66.40
24522;DHT22;12680;57.804;12.190;2023-05-10T06:52:49;15.40;66.10
24522;DHT22;12680;57.804;12.190;2023-05-10T06:55:18;15.50;65.80
24522;DHT22;12680;57.804;12.190;2023-05-10T06:57:45;15.60;65.40
24522;DHT22;12680;57.804;12.190;2023-05-10T07:00:13;15.70;65.10
24522;DHT22;12680;57.804;12.190;2023-05-10T07:02:40;15.80;65.00
24522;DHT22;12680;57.804;12.190;2023-05-10T07:05:08;15.90;64.60
24522;DHT22;12680;57.804;12.190;2023-05-10T07:07:35;16.00;64.20
24522;DHT22;12680;57.804;12.190;2023-05-10T07:10:02;16.10;64.20
24522;DHT22;12680;57.804;12.190;2023-05-10T07:12:29;16.20;63.90
24522;DHT22;12680;57.804;12.190;2023-05-10T07:15:01;16.40;63.70
24522;DHT22;12680;57.804;12.190;2023-05-10T07:17:28;16.50;63.40
24522;DHT22;12680;57.804;12.190;2023-05-10T07:19:56;16.60;62.90
24522;DHT22;12680;57.804;12.190;2023-05-10T07:22:23;16.60;62.30
24522;DHT22;12680;57.804;12.190;2023-05-10T07:24:50;16.80;62.50
24522;DHT22;12680;57.804;12.190;2023-05-10T07:27:17;16.90;62.00
24522;DHT22;12680;57.804;12.190;2023-05-10T07:29:45;17.00;61.40
24522;DHT22;12680;57.804;12.190;2023-05-10T07:32:12;17.00;60.80
24522;DHT22;12680;57.804;12.190;2023-05-10T07:34:40;17.10;60.50
24522;DHT22;12680;57.804;12.190;2023-05-10T07:37:44;17.20;60.90
24522;DHT22;12680;57.804;12.190;2023-05-10T07:40:15;17.40;60.50
24522;DHT22;12680;57.804;12.190;2023-05-10T07:42:42;17.60;60.10
24522;DHT22;12680;57.804;12.190;2023-05-10T07:45:13;17.60;59.80
24522;DHT22;12680;57.804;12.190;2023-05-10T07:47:44;17.80;59.10
24522;DHT22;12680;57.804;12.190;2023-05-10T07:50:11;17.80;58.90
24522;DHT22;12680;57.804;12.190;2023-05-10T07:52:39;17.90;59.10
24522;DHT22;12680;57.804;12.190;2023-05-10T07:55:09;17.90;58.70
24522;DHT22;12680;57.804;12.190;2023-05-10T07:57:39;18.00;58.40
24522;DHT22;12680;57.804;12.190;2023-05-10T08:00:06;18.00;58.30
24522;DHT22;12680;57.804;12.190;2023-05-10T08:02:35;18.10;58.10
24522;DHT22;12680;57.804;12.190;2023-05-10T08:05:02;18.20;57.60
24522;DHT22;12680;57.804;12.190;2023-05-10T08:07:29;18.20;57.50
24522;DHT22;12680;57.804;12.190;2023-05-10T08:09:56;18.30;57.80
24522;DHT22;12680;57.804;12.190;2023-05-10T08:12:23;18.30;57.50
24522;DHT22;12680;57.804;12.190;2023-05-10T08:14:51;18.40;57.00
24522;DHT22;12680;57.804;12.190;2023-05-10T08:17:17;18.40;57.20
24522;DHT22;12680;57.804;12.190;2023-05-10T08:19:46;18.50;57.20
24522;DHT22;12680;57.804;12.190;2023-05-10T08:22:14;18.60;57.30
24522;DHT22;12680;57.804;12.190;2023-05-10T08:24:41;18.80;57.40
24522;DHT22;12680;57.804;12.190;2023-05-10T08:27:08;18.90;57.10
24522;DHT22;12680;57.804;12.190;2023-05-10T08:29:38;19.00;56.80
24522;DHT22;12680;57.804;12.190;2023-05-10T08:32:16;19.00;56.50
24522;DHT22;12680;57.804;12.190;2023-05-10T08:34:43;19.10;56.00
24522;DHT22;12680;57.804;12.190;2023-05-10T08:37:10;19.10;55.80
24522;DHT22;12680;57.804;12.190;2023-05-10T08:39:40;19.10;55.60
24522;DHT22;12680;57.804;12.190;2023-05-10T08:42:07;19.20;55.50
24522;DHT22;12680;57.804;12.190;2023-05-10T08:44:36;19.20;55.40
24522;DHT22;12680;57.804;12.190;2023-05-10T08:47:07;19.20;55.20
24522;DHT22;12680;57.804;12.190;2023-05-10T08:49:40;19.30;55.40
24522;DHT22;12680;57.804;12.190;2023-05-10T08:52:10;19.40;55.00
24522;DHT22;12680;57.804;12.190;2023-05-10T08:54:38;19.40;54.70
24522;DHT22;12680;57.804;12.190;2023-05-10T08:57:05;19.40;54.80
24522;DHT22;12680;57.804;12.190;2023-05-10T08:59:33;19.50;54.30
24522;DHT22;12680;57.804;12.190;2023-05-10T09:02:00;19.50;54.30
24522;DHT22;12680;57.804;12.190;2023-05-10T09:04:29;19.50;54.20
24522;DHT22;12680;57.804;12.190;2023-05-10T09:06:56;19.60;54.10
24522;DHT22;12680;57.804;12.190;2023-05-10T09:09:25;19.70;53.60
24522;DHT22;12680;57.804;12.190;2023-05-10T09:11:52;19.70;53.40
24522;DHT22;12680;57.804;12.190;2023-05-10T09:14:23;19.70;53.30
24522;DHT22;12680;57.804;12.190;2023-05-10T09:16:52;19.80;53.50
24522;DHT22;12680;57.804;12.190;2023-05-10T09:19:20;19.90;53.30
24522;DHT22;12680;57.804;12.190;2023-05-10T09:21:48;20.00;53.00
24522;DHT22;12680;57.804;12.190;2023-05-10T09:24:15;20.00;53.10
24522;DHT22;12680;57.804;12.190;2023-05-10T09:26:48;20.10;53.10
24522;DHT22;12680;57.804;12.190;2023-05-10T09:29:16;20.30;53.00
24522;DHT22;12680;57.804;12.190;2023-05-10T09:34:19;20.40;52.70
24522;DHT22;12680;57.804;12.190;2023-05-10T09:36:55;20.50;52.60
24522;DHT22;12680;57.804;12.190;2023-05-10T09:39:38;20.60;52.10
24522;DHT22;12680;57.804;12.190;2023-05-10T09:42:07;20.60;52.40
24522;DHT22;12680;57.804;12.190;2023-05-10T09:44:35;20.70;52.70
24522;DHT22;12680;57.804;12.190;2023-05-10T09:47:03;20.70;51.80
24522;DHT22;12680;57.804;12.190;2023-05-10T09:49:30;20.70;51.70
24522;DHT22;12680;57.804;12.190;2023-05-10T09:52:04;20.80;51.80
24522;DHT22;12680;57.804;12.190;2023-05-10T09:54:32;20.90;51.30
24522;DHT22;12680;57.804;12.190;2023-05-10T09:57:00;20.90;51.40
24522;DHT22;12680;57.804;12.190;2023-05-10T09:59:28;21.00;51.20
24522;DHT22;12680;57.804;12.190;2023-05-10T10:01:56;21.00;50.80
24522;DHT22;12680;57.804;12.190;2023-05-10T10:04:25;21.10;50.80
24522;DHT22;12680;57.804;12.190;2023-05-10T10:07:21;21.10;50.60
24522;DHT22;12680;57.804;12.190;2023-05-10T10:09:49;21.20;50.40
24522;DHT22;12680;57.804;12.190;2023-05-10T10:12:16;21.20;50.00
24522;DHT22;12680;57.804;12.190;2023-05-10T10:14:43;21.20;50.00
24522;DHT22;12680;57.804;12.190;2023-05-10T10:17:12;21.20;50.00
24522;DHT22;12680;57.804;12.190;2023-05-10T10:19:39;21.30;50.20
24522;DHT22;12680;57.804;12.190;2023-05-10T10:22:06;21.30;50.10
24522;DHT22;12680;57.804;12.190;2023-05-10T10:24:33;21.40;50.00
24522;DHT22;12680;57.804;12.190;2023-05-10T10:35:21;21.60;48.80
24522;DHT22;12680;57.804;12.190;2023-05-10T10:37:50;21.70;48.80
24522;DHT22;12680;57.804;12.190;2023-05-10T10:40:28;21.70;48.60
24522;DHT22;12680;57.804;12.190;2023-05-10T10:42:57;21.80;48.40
24522;DHT22;12680;57.804;12.190;2023-05-10T10:45:25;21.80;48.50
24522;DHT22;12680;57.804;12.190;2023-05-10T10:48:23;21.90;48.10
24522;DHT22;12680;57.804;12.190;2023-05-10T10:50:57;21.90;48.10
24522;DHT22;12680;57.804;12.190;2023-05-10T10:53:27;22.00;47.90
24522;DHT22;12680;57.804;12.190;2023-05-10T10:56:15;22.10;47.90
24522;DHT22;12680;57.804;12.190;2023-05-10T10:58:49;22.20;47.40
24522;DHT22;12680;57.804;12.190;2023-05-10T11:01:18;22.20;47.20
24522;DHT22;12680;57.804;12.190;2023-05-10T11:06:30;22.20;46.90
24522;DHT22;12680;57.804;12.190;2023-05-10T11:08:58;22.30;47.00
24522;DHT22;12680;57.804;12.190;2023-05-10T11:11:25;22.30;47.30
24522;DHT22;12680;57.804;12.190;2023-05-10T11:13:52;22.40;47.30
24522;DHT22;12680;57.804;12.190;2023-05-10T11:16:23;22.50;47.40
24522;DHT22;12680;57.804;12.190;2023-05-10T11:19:03;22.60;47.70
24522;DHT22;12680;57.804;12.190;2023-05-10T11:21:32;22.70;47.30
24522;DHT22;12680;57.804;12.190;2023-05-10T11:24:00;22.70;46.90
24522;DHT22;12680;57.804;12.190;2023-05-10T11:26:34;22.80;47.00
24522;DHT22;12680;57.804;12.190;2023-05-10T11:29:02;22.80;46.60
24522;DHT22;12680;57.804;12.190;2023-05-10T11:31:32;22.90;46.50
24522;DHT22;12680;57.804;12.190;2023-05-10T11:34:03;23.00;46.50
24522;DHT22;12680;57.804;12.190;2023-05-10T11:36:33;23.10;46.60
24522;DHT22;12680;57.804;12.190;2023-05-10T11:39:04;23.20;46.10
24522;DHT22;12680;57.804;12.190;2023-05-10T11:41:32;23.20;45.60
24522;DHT22;12680;57.804;12.190;2023-05-10T11:43:59;23.20;45.50
24522;DHT22;12680;57.804;12.190;2023-05-10T11:46:29;23.20;45.60
24522;DHT22;12680;57.804;12.190;2023-05-10T11:49:02;23.20;45.50
24522;DHT22;12680;57.804;12.190;2023-05-10T11:51:34;23.20;45.10
24522;DHT22;12680;57.804;12.190;2023-05-10T11:54:06;23.20;44.60
24522;DHT22;12680;57.804;12.190;2023-05-10T11:56:36;23.20;44.70
24522;DHT22;12680;57.804;12.190;2023-05-10T11:59:04;23.20;44.90
24522;DHT22;12680;57.804;12.190;2023-05-10T12:01:31;23.20;44.70
24522;DHT22;12680;57.804;12.190;2023-05-10T12:03:58;23.30;44.60
24522;DHT22;12680;57.804;12.190;2023-05-10T12:06:29;23.30;44.60
24522;DHT22;12680;57.804;12.190;2023-05-10T12:08:58;23.40;44.30
24522;DHT22;12680;57.804;12.190;2023-05-10T12:11:26;23.40;43.60
24522;DHT22;12680;57.804;12.190;2023-05-10T12:13:57;23.50;43.50
24522;DHT22;12680;57.804;12.190;2023-05-10T12:16:28;23.50;43.40
24522;DHT22;12680;57.804;12.190;2023-05-10T12:18:59;23.60;43.30
24522;DHT22;12680;57.804;12.190;2023-05-10T12:21:28;23.60;43.30
24522;DHT22;12680;57.804;12.190;2023-05-10T12:24:02;23.60;42.80
24522;DHT22;12680;57.804;12.190;2023-05-10T12:26:30;23.70;43.20
24522;DHT22;12680;57.804;12.190;2023-05-10T12:29:17;23.70;42.60
24522;DHT22;12680;57.804;12.190;2023-05-10T12:32:00;23.70;42.70
24522;DHT22;12680;57.804;12.190;2023-05-10T12:34:30;23.80;42.10
24522;DHT22;12680;57.804;12.190;2023-05-10T12:36:58;23.80;41.70
24522;DHT22;12680;57.804;12.190;2023-05-10T12:39:25;23.80;41.80
24522;DHT22;12680;57.804;12.190;2023-05-10T12:41:52;23.80;41.60
24522;DHT22;12680;57.804;12.190;2023-05-10T12:44:19;23.90;41.70
24522;DHT22;12680;57.804;12.190;2023-05-10T12:46:46;23.90;41.20
24522;DHT22;12680;57.804;12.190;2023-05-10T12:49:14;24.00;41.50
24522;DHT22;12680;57.804;12.190;2023-05-10T12:51:44;24.00;41.70
24522;DHT22;12680;57.804;12.190;2023-05-10T12:54:11;24.10;41.50
24522;DHT22;12680;57.804;12.190;2023-05-10T12:56:38;24.10;41.30
24522;DHT22;12680;57.804;12.190;2023-05-10T12:59:07;24.20;40.80
24522;DHT22;12680;57.804;12.190;2023-05-10T13:01:34;24.20;41.10
24522;DHT22;12680;57.804;12.190;2023-05-10T13:04:01;24.20;40.50
24522;DHT22;12680;57.804;12.190;2023-05-10T13:06:28;24.10;40.40
24522;DHT22;12680;57.804;12.190;2023-05-10T13:08:56;24.10;40.40
24522;DHT22;12680;57.804;12.190;2023-05-10T13:11:27;24.10;40.50
24522;DHT22;12680;57.804;12.190;2023-05-10T13:13:54;24.10;40.30
24522;DHT22;12680;57.804;12.190;2023-05-10T13:16:22;24.10;40.10
24522;DHT22;12680;57.804;12.190;2023-05-10T13:18:49;24.10;40.40
24522;DHT22;12680;57.804;12.190;2023-05-10T13:21:16;24.20;40.30
24522;DHT22;12680;57.804;12.190;2023-05-10T13:23:43;24.30;39.90
24522;DHT22;12680;57.804;12.190;2023-05-10T13:26:10;24.30;40.00
24522;DHT22;12680;57.804;12.190;2023-05-10T13:28:37;24.30;39.50
24522;DHT22;12680;57.804;12.190;2023-05-10T13:31:05;24.30;39.60
24522;DHT22;12680;57.804;12.190;2023-05-10T13:33:32;24.20;39.20
24522;DHT22;12680;57.804;12.190;2023-05-10T13:35:59;24.10;38.90
24522;DHT22;12680;57.804;12.190;2023-05-10T13:38:30;24.10;38.60
24522;DHT22;12680;57.804;12.190;2023-05-10T13:40:57;24.10;39.10
24522;DHT22;12680;57.804;12.190;2023-05-10T13:43:24;24.10;39.00
24522;DHT22;12680;57.804;12.190;2023-05-10T13:45:51;24.10;38.90
24522;DHT22;12680;57.804;12.190;2023-05-10T13:48:18;24.10;38.80
24522;DHT22;12680;57.804;12.190;2023-05-10T13:50:46;24.20;38.90
24522;DHT22;12680;57.804;12.190;2023-05-10T13:53:13;24.20;38.80
24522;DHT22;12680;57.804;12.190;2023-05-10T13:55:41;24.20;38.60
24522;DHT22;12680;57.804;12.190;2023-05-10T13:58:08;24.30;38.60
24522;DHT22;12680;57.804;12.190;2023-05-10T14:00:35;24.30;38.30
24522;DHT22;12680;57.804;12.190;2023-05-10T14:03:02;24.40;38.00
24522;DHT22;12680;57.804;12.190;2023-05-10T14:05:31;24.40;37.00
24522;DHT22;12680;57.804;12.190;2023-05-10T14:07:58;24.30;37.00
24522;DHT22;12680;57.804;12.190;2023-05-10T14:10:25;24.20;36.90
24522;DHT22;12680;57.804;12.190;2023-05-10T14:12:52;24.20;36.70
24522;DHT22;12680;57.804;12.190;2023-05-10T14:15:20;24.10;36.70
24522;DHT22;12680;57.804;12.190;2023-05-10T14:17:47;24.10;36.60
24522;DHT22;12680;57.804;12.190;2023-05-10T14:20:14;24.20;36.90
24522;DHT22;12680;57.804;12.190;2023-05-10T14:22:41;24.20;36.60
24522;DHT22;12680;57.804;12.190;2023-05-10T14:25:08;24.20;36.50
24522;DHT22;12680;57.804;12.190;2023-05-10T14:27:36;24.20;36.50
24522;DHT22;12680;57.804;12.190;2023-05-10T14:30:03;24.20;36.10
24522;DHT22;12680;57.804;12.190;2023-05-10T14:32:31;24.20;36.10
24522;DHT22;12680;57.804;12.190;2023-05-10T14:34:59;24.20;36.30
24522;DHT22;12680;57.804;12.190;2023-05-10T14:37:26;24.20;36.70
24522;DHT22;12680;57.804;12.190;2023-05-10T14:39:53;24.30;36.60
24522;DHT22;12680;57.804;12.190;2023-05-10T14:42:21;24.30;36.70
24522;DHT22;12680;57.804;12.190;2023-05-10T14:44:48;24.30;36.80
24522;DHT22;12680;57.804;12.190;2023-05-10T14:47:15;24.40;36.50
24522;DHT22;12680;57.804;12.190;2023-05-10T14:49:42;24.40;36.00
24522;DHT22;12680;57.804;12.190;2023-05-10T14:52:09;24.30;35.90
24522;DHT22;12680;57.804;12.190;2023-05-10T14:54:36;24.20;36.20
24522;DHT22;12680;57.804;12.190;2023-05-10T14:57:07;24.20;36.70
24522;DHT22;12680;57.804;12.190;2023-05-10T14:59:34;24.30;37.00
24522;DHT22;12680;57.804;12.190;2023-05-10T15:02:01;24.20;36.40
24522;DHT22;12680;57.804;12.190;2023-05-10T15:04:30;24.20;36.60
24522;DHT22;12680;57.804;12.190;2023-05-10T15:06:57;24.30;36.90
24522;DHT22;12680;57.804;12.190;2023-05-10T15:09:26;24.40;36.50
24522;DHT22;12680;57.804;12.190;2023-05-10T15:11:55;24.40;36.20
24522;DHT22;12680;57.804;12.190;2023-05-10T15:14:26;24.40;36.00
24522;DHT22;12680;57.804;12.190;2023-05-10T15:16:53;24.30;35.70
24522;DHT22;12680;57.804;12.190;2023-05-10T15:19:20;24.20;35.80
24522;DHT22;12680;57.804;12.190;2023-05-10T15:21:51;24.20;35.70
24522;DHT22;12680;57.804;12.190;2023-05-10T15:24:21;24.30;35.90
24522;DHT22;12680;57.804;12.190;2023-05-10T15:26:52;24.40;36.10
24522;DHT22;12680;57.804;12.190;2023-05-10T15:29:19;24.30;36.00
24522;DHT22;12680;57.804;12.190;2023-05-10T15:31:50;24.30;36.00
24522;DHT22;12680;57.804;12.190;2023-05-10T15:34:18;24.20;35.80
24522;DHT22;12680;57.804;12.190;2023-05-10T15:36:45;24.30;36.10
24522;DHT22;12680;57.804;12.190;2023-05-10T15:39:12;24.30;36.10
24522;DHT22;12680;57.804;12.190;2023-05-10T15:41:39;24.40;36.20
24522;DHT22;12680;57.804;12.190;2023-05-10T15:44:06;24.40;36.10
24522;DHT22;12680;57.804;12.190;2023-05-10T15:46:33;24.40;36.20
24522;DHT22;12680;57.804;12.190;2023-05-10T15:49:04;24.50;36.10
24522;DHT22;12680;57.804;12.190;2023-05-10T15:51:32;24.50;35.90
24522;DHT22;12680;57.804;12.190;2023-05-10T15:54:02;24.50;35.80
24522;DHT22;12680;57.804;12.190;2023-05-10T15:56:34;24.50;35.50
24522;DHT22;12680;57.804;12.190;2023-05-10T15:59:05;24.50;35.50